Time;durP1;ratioP1;P1;durP2;ratioP2;P2;SDS_P1;SDS_P2;PMS_P1;PMS_P2;Temp;Humidity;BMP_temperature;BMP_pressure;BME280_temperature;BME280_humidity;BME280_pressure;Samples;Min_cycle;Max_cycle;Signal;HPM_P1;HPM_P2
2022/12/20 06:42:28;;;;;;;17.73;11.07;;;7.90;99.90;;;6.31;100.00;100645.31;4897809;29;20286;-74
2022/12/20 06:44:54;;;;;;;22.30;11.35;;;7.90;99.90;;;6.29;100.00;100636.53;4912525;29;20063;-74
2022/12/20 06:47:20;;;;;;;17.90;11.18;;;7.90;99.90;;;6.23;100.00;100634.59;4912866;29;20066;-73
2022/12/20 06:49:46;;;;;;;18.70;11.02;;;7.90;99.90;;;6.31;100.00;100626.34;4922972;29;20054;-73
2022/12/20 06:52:20;;;;;;;18.05;10.82;;;7.90;99.90;;;6.32;100.00;100638.88;4934959;29;20085;-73
2022/12/20 06:54:49;;;;;;;16.30;10.38;;;7.90;99.90;;;6.31;100.00;100642.63;4934764;29;20035;-75
2022/12/20 06:57:15;;;;;;;19.42;10.77;;;7.90;99.90;;;6.30;100.00;100643.66;4945465;29;20034;-74
2022/12/20 06:59:44;;;;;;;17.88;10.93;;;7.90;99.90;;;6.22;100.00;100644.59;4926544;29;20105;-76
2022/12/20 07:02:13;;;;;;;19.58;10.95;;;7.90;99.90;;;6.12;100.00;100628.63;4938443;29;20070;-75
2022/12/20 07:04:39;;;;;;;20.60;11.80;;;7.80;99.90;;;6.06;100.00;100631.25;4938625;29;20125;-75
2022/12/20 07:07:05;;;;;;;20.90;11.98;;;7.70;99.90;;;5.93;100.00;100630.00;4951994;29;20027;-76
2022/12/20 07:09:31;;;;;;;20.08;12.02;;;7.60;99.90;;;5.80;100.00;100622.53;4934445;29;20126;-75
2022/12/20 07:11:57;;;;;;;21.58;12.18;;;7.50;99.90;;;5.68;100.00;100613.19;4920369;29;20428;-76
2022/12/20 07:14:23;;;;;;;21.02;12.27;;;7.40;99.90;;;5.78;100.00;100626.47;4913970;29;20107;-81
2022/12/20 07:16:49;;;;;;;21.95;13.13;;;7.40;99.90;;;5.80;100.00;100619.00;4916746;29;20035;-76
2022/12/20 07:19:15;;;;;;;22.95;13.88;;;7.40;99.90;;;5.91;100.00;100637.47;4926055;29;20036;-76
2022/12/20 07:21:42;;;;;;;20.80;12.65;;;7.50;99.90;;;5.91;100.00;100632.03;4936513;29;20071;-76
2022/12/20 07:24:08;;;;;;;24.63;13.77;;;7.50;99.90;;;5.78;100.00;100611.03;4933334;29;20092;-76
2022/12/20 07:26:34;;;;;;;22.77;12.90;;;7.50;99.90;;;5.86;100.00;100618.22;4931853;29;20067;-77
2022/12/20 07:29:00;;;;;;;23.20;12.93;;;7.50;99.90;;;5.87;100.00;100601.81;4939153;29;20056;-76
2022/12/20 07:31:26;;;;;;;22.85;13.90;;;7.50;99.90;;;5.81;100.00;100599.00;4941638;29;20118;-76
2022/12/20 07:33:52;;;;;;;24.02;14.07;;;7.50;99.90;;;5.85;100.00;100611.13;4942010;29;20034;-76
2022/12/20 07:36:18;;;;;;;24.13;13.77;;;7.50;99.90;;;5.88;100.00;100625.16;4941775;29;20035;-77
2022/12/20 07:38:44;;;;;;;24.95;13.85;;;7.50;99.90;;;5.86;100.00;100626.34;4936918;29;20035;-75
2022/12/20 07:41:14;;;;;;;22.60;14.00;;;7.50;99.90;;;5.79;100.00;100611.88;4935165;29;20501;-76
2022/12/20 07:43:40;;;;;;;24.77;14.70;;;7.40;99.90;;;5.69;100.00;100610.28;4935879;29;20518;-76
2022/12/20 07:46:10;;;;;;;22.77;14.02;;;7.40;99.90;;;5.84;100.00;100614.88;4942542;29;20024;-76
2022/12/20 07:48:36;;;;;;;23.42;13.85;;;7.40;99.90;;;5.95;100.00;100616.28;4939845;29;20068;-76
2022/12/20 07:51:10;;;;;;;25.23;13.63;;;7.50;99.90;;;5.98;100.00;100624.88;4950075;29;20394;-75
2022/12/20 07:53:46;;;;;;;25.63;13.57;;;7.50;99.90;;;6.05;100.00;100611.44;4947702;29;20400;-74
2022/12/20 07:56:14;;;;;;;24.27;13.48;;;7.60;99.90;;;5.98;100.00;100599.66;4936851;29;20074;-74
2022/12/20 07:58:43;;;;;;;21.92;13.32;;;7.70;99.90;;;6.07;100.00;100616.69;4944861;29;20043;-72
2022/12/20 08:01:10;;;;;;;22.08;12.70;;;7.70;99.90;;;6.09;100.00;100623.56;4940590;28;20130;-76
2022/12/20 08:03:46;;;;;;;19.98;11.95;;;7.70;99.90;;;6.09;100.00;100612.75;4954774;29;20031;-76
2022/12/20 08:06:13;;;;;;;20.67;12.23;;;7.70;99.90;;;6.09;100.00;100609.22;4954485;29;20046;-75
2022/12/20 08:08:48;;;;;;;19.05;12.05;;;7.70;99.90;;;6.16;100.00;100616.41;4926702;29;20035;-75
2022/12/20 08:11:15;;;;;;;23.30;13.20;;;7.80;99.90;;;6.23;100.00;100616.47;4921259;29;20123;-77
2022/12/20 08:13:41;;;;;;;20.63;11.90;;;7.80;99.90;;;6.28;100.00;100616.75;4930946;29;20697;-76
2022/12/20 08:16:07;;;;;;;21.08;11.40;;;7.90;99.90;;;6.29;100.00;100602.19;4943980;29;20038;-75
2022/12/20 08:18:33;;;;;;;21.10;11.73;;;8.00;99.90;;;6.42;100.00;100603.34;4945125;29;20182;-75
2022/12/20 08:20:59;;;;;;;17.50;10.73;;;8.00;99.90;;;6.41;100.00;100599.81;4916226;29;20040;-76
2022/12/20 08:23:26;;;;;;;21.02;12.45;;;8.10;99.90;;;6.54;100.00;100598.28;4939946;29;20482;-75
2022/12/20 08:25:51;;;;;;;18.60;10.80;;;8.20;99.90;;;6.61;100.00;100601.91;4954281;29;20351;-74
2022/12/20 08:28:17;;;;;;;16.90;10.60;;;8.20;99.90;;;6.62;100.00;100600.84;4953836;29;20031;-77
2022/12/20 08:30:43;;;;;;;17.73;11.20;;;8.30;99.90;;;6.67;100.00;100601.16;4954035;29;20164;-77
2022/12/20 08:33:09;;;;;;;17.55;9.73;;;8.30;99.90;;;6.75;100.00;100597.44;4938671;29;20486;-76
2022/12/20 08:35:34;;;;;;;17.35;10.35;;;8.40;99.90;;;6.74;100.00;100591.22;4934818;29;20062;-76
2022/12/20 08:38:00;;;;;;;17.48;10.70;;;8.30;99.90;;;6.76;100.00;100582.84;4932478;29;20121;-74
2022/12/20 08:40:26;;;;;;;15.80;9.90;;;8.40;99.90;;;6.73;100.00;100592.25;4936027;29;20040;-76
2022/12/20 08:42:52;;;;;;;17.10;9.77;;;8.40;99.90;;;6.73;100.00;100597.66;4915043;29;20055;-76
2022/12/20 08:45:18;;;;;;;17.83;9.82;;;8.30;99.90;;;6.78;100.00;100588.97;4915446;29;20092;-76
2022/12/20 08:47:44;;;;;;;15.52;10.13;;;8.40;99.90;;;6.79;100.00;100574.38;4915563;29;20032;-76
2022/12/20 08:50:10;;;;;;;16.58;9.82;;;8.40;99.90;;;6.88;100.00;100584.03;4915199;29;20043;-75
2022/12/20 08:52:36;;;;;;;15.85;9.40;;;8.50;99.90;;;6.93;100.00;100586.19;4915603;29;20040;-75
2022/12/20 08:55:02;;;;;;;15.52;9.63;;;8.50;99.90;;;6.94;100.00;100559.88;4915447;29;20043;-74
2022/12/20 08:57:28;;;;;;;17.58;9.32;;;8.60;99.90;;;7.00;100.00;100576.22;4914922;29;20043;-73
2022/12/20 08:59:53;;;;;;;14.25;8.60;;;8.60;99.90;;;7.08;100.00;100574.41;4930975;29;20156;-75
2022/12/20 09:02:19;;;;;;;14.05;8.82;;;8.60;99.90;;;7.13;100.00;100571.94;4934542;29;20043;-74
2022/12/20 09:04:46;;;;;;;16.35;8.90;;;8.70;99.90;;;7.15;100.00;100584.28;4936917;29;20091;-76
2022/12/20 09:07:12;;;;;;;16.00;8.88;;;8.80;99.90;;;7.15;100.00;100578.84;4939138;29;20131;-75
2022/12/20 09:09:38;;;;;;;16.05;8.20;;;8.70;99.90;;;7.15;100.00;100578.84;4954378;29;20031;-76
2022/12/20 09:12:04;;;;;;;14.10;8.73;;;8.80;99.90;;;7.19;100.00;100565.75;4927691;29;20050;-74
2022/12/20 09:14:30;;;;;;;16.98;8.60;;;8.80;99.90;;;7.19;100.00;100569.28;4948927;29;20027;-77
2022/12/20 09:16:55;;;;;;;18.65;8.23;;;8.80;99.90;;;7.16;100.00;100566.97;4941899;29;20517;-75
2022/12/20 09:19:21;;;;;;;12.32;7.95;;;8.80;99.90;;;7.28;100.00;100583.56;4944183;29;20031;-76
2022/12/20 09:21:47;;;;;;;13.40;7.93;;;8.80;99.90;;;7.38;100.00;100574.22;4936042;29;20047;-76
2022/12/20 09:24:12;;;;;;;13.25;7.40;;;8.90;99.90;;;7.35;100.00;100575.47;4933330;29;20114;-75
2022/12/20 09:26:39;;;;;;;12.82;8.00;;;9.00;99.90;;;7.44;100.00;100581.59;4933068;29;20035;-76
2022/12/20 09:29:05;;;;;;;14.10;7.40;;;9.00;99.90;;;7.45;100.00;100566.97;4932991;29;20031;-76
2022/12/20 09:31:31;;;;;;;13.77;8.18;;;9.10;99.90;;;7.44;100.00;100578.88;4933056;29;20028;-75
2022/12/20 09:33:58;;;;;;;16.05;7.70;;;9.00;99.90;;;7.42;100.00;100561.94;4932951;29;20436;-76
2022/12/20 09:36:27;;;;;;;11.57;7.00;;;9.10;99.90;;;7.41;100.00;100549.38;4933429;29;20035;-77
2022/12/20 09:38:54;;;;;;;12.52;7.88;;;9.00;99.90;;;7.46;100.00;100552.38;4933765;29;20281;-76
2022/12/20 09:41:39;;;;;;;11.75;7.43;;;9.10;99.90;;;7.56;100.00;100563.72;4938268;29;20027;-75
2022/12/20 09:44:26;;;;;;;14.38;7.18;;;9.10;99.90;;;7.53;100.00;100558.69;4950616;29;20059;-75
2022/12/20 09:47:02;;;;;;;13.60;6.38;;;9.10;99.90;;;7.59;100.00;100551.63;4915455;29;20040;-76
2022/12/20 09:49:35;;;;;;;14.63;7.15;;;9.20;99.90;;;7.60;100.00;100564.97;4929449;29;20031;-76
2022/12/20 09:52:35;;;;;;;13.45;8.18;;;9.20;99.90;;;7.69;100.00;100560.22;4931702;29;20035;-76
2022/12/20 09:55:19;;;;;;;;;;;9.30;99.90;;;7.74;100.00;100554.22;4932587;29;20094;-76
2022/12/20 09:58:14;;;;;;;12.10;6.60;;;9.30;99.90;;;7.74;100.00;100546.06;4931837;29;20013;-75
2022/12/20 10:00:47;;;;;;;10.40;6.82;;;9.30;99.90;;;7.74;100.00;100543.34;4931899;29;20130;-76
2022/12/20 10:03:26;;;;;;;10.75;6.35;;;9.30;99.90;;;7.87;100.00;100534.44;4932589;29;20036;-76
2022/12/20 10:06:01;;;;;;;12.15;6.90;;;9.40;99.90;;;7.99;100.00;100540.13;4933550;29;20087;-75
2022/12/20 10:08:55;;;;;;;11.10;6.07;;;9.50;99.90;;;7.96;100.00;100527.78;4915779;29;20035;-76
2022/12/20 10:12:00;;;;;;;12.07;6.75;;;9.60;99.90;;;7.98;100.00;100535.72;4932892;29;20050;-75
2022/12/20 10:15:02;;;;;;;9.98;6.20;;;9.60;99.90;;;8.06;100.00;100532.84;4932312;29;20032;-76
2022/12/20 10:18:05;;;;;;;9.85;6.18;;;9.60;99.90;;;8.15;100.00;100523.44;4932730;29;20039;-76
2022/12/20 10:21:00;;;;;;;9.80;5.90;;;9.70;99.90;;;8.20;100.00;100542.69;4932672;29;20040;-76
2022/12/20 10:24:00;;;;;;;10.27;6.05;;;9.80;99.90;;;8.27;100.00;100542.72;4931852;29;20120;-76
2022/12/20 10:26:27;;;;;;;8.60;5.57;;;9.80;99.90;;;8.34;100.00;100529.16;4931988;29;20039;-76
2022/12/20 10:28:53;;;;;;;9.27;5.47;;;9.90;99.90;;;8.38;100.00;100503.25;4931982;29;20039;-75
2022/12/20 10:31:19;;;;;;;10.73;5.75;;;10.00;99.90;;;8.47;100.00;100509.31;4932020;29;20032;-76
2022/12/20 10:33:45;;;;;;;10.88;5.57;;;10.00;99.90;;;8.48;100.00;100495.50;4931989;29;20032;-76
2022/12/20 10:36:29;;;;;;;11.23;5.80;;;10.00;99.90;;;8.60;100.00;100500.38;4931652;29;20431;-76
2022/12/20 10:39:01;;;;;;;12.20;5.53;;;10.10;99.90;;;8.53;100.00;100475.06;4931975;29;20042;-75
2022/12/20 10:41:31;;;;;;;10.18;5.40;;;10.20;99.90;;;8.99;100.00;100490.53;4931546;29;20106;-75
2022/12/20 10:44:17;;;;;;;12.57;5.65;;;10.30;99.90;;;8.89;100.00;100495.59;4931216;29;20449;-75
2022/12/20 10:47:20;;;;;;;10.50;5.07;;;10.50;99.90;;;8.76;100.00;100486.41;4931818;29;20027;-76
2022/12/20 10:49:46;;;;;;;9.93;5.18;;;10.40;99.90;;;8.92;100.00;100496.00;4931738;29;20047;-76
2022/12/20 10:52:13;;;;;;;10.43;5.28;;;10.40;99.90;;;9.19;100.00;100479.66;4931420;29;20032;-77
2022/12/20 10:54:42;;;;;;;9.88;5.30;;;10.70;99.90;;;9.12;100.00;100495.13;4931492;29;20122;-76
2022/12/20 10:57:28;;;;;;;9.43;5.45;;;10.70;99.90;;;8.92;100.00;100495.16;4931313;29;20048;-76
2022/12/20 10:59:59;;;;;;;8.32;5.13;;;10.60;99.90;;;8.81;100.00;100491.19;4931513;29;20372;-76
2022/12/20 11:02:26;;;;;;;9.88;5.65;;;10.40;99.90;;;8.71;100.00;100493.50;4931585;29;20106;-76
2022/12/20 11:05:09;;;;;;;8.88;4.90;;;10.30;99.90;;;8.74;100.00;100485.72;4931658;29;20035;-76
2022/12/20 11:07:38;;;;;;;10.27;4.85;;;10.30;99.90;;;8.75;100.00;100481.16;4931685;29;20043;-76
2022/12/20 11:10:22;;;;;;;10.68;5.43;;;10.30;99.90;;;8.81;100.00;100477.59;4931494;29;20020;-76
2022/12/20 11:12:56;;;;;;;8.77;5.57;;;10.40;99.90;;;8.69;100.00;100455.63;4931277;29;20047;-77
2022/12/20 11:15:30;;;;;;;10.88;5.68;;;10.40;99.90;;;8.81;100.00;100460.44;4931292;29;20509;-77
2022/12/20 11:18:05;;;;;;;9.38;5.75;;;10.40;99.90;;;8.75;100.00;100465.69;4931137;29;20045;-76
2022/12/20 11:21:05;;;;;;;8.52;5.30;;;10.40;99.90;;;8.83;100.00;100469.22;4931155;29;20448;-74
2022/12/20 11:24:07;;;;;;;10.00;4.75;;;10.40;99.90;;;8.81;100.00;100458.53;4931128;29;20040;-74
2022/12/20 11:27:12;;;;;;;9.60;5.03;;;10.40;99.90;;;8.68;100.00;100445.78;4931190;29;20100;-75
2022/12/20 11:30:08;;;;;;;9.95;4.85;;;10.40;99.90;;;8.76;100.00;100470.06;4931090;29;20042;-76
2022/12/20 11:32:52;;;;;;;9.77;4.53;;;10.40;99.90;;;8.76;100.00;100461.06;4931468;29;20036;-76
2022/12/20 11:35:37;;;;;;;8.60;5.20;;;10.40;99.90;;;8.83;100.00;100469.22;4932387;29;20040;-75
2022/12/20 11:38:41;;;;;;;9.80;5.32;;;10.40;99.90;;;8.88;100.00;100463.97;4935047;29;20043;-76
2022/12/20 11:41:41;;;;;;;7.93;4.93;;;10.40;99.90;;;8.79;100.00;100452.47;4935013;29;20032;-75
2022/12/20 11:44:38;;;;;;;12.40;5.00;;;10.40;99.90;;;8.76;100.00;100442.88;4934670;29;20102;-75
2022/12/20 11:47:38;;;;;;;8.85;5.47;;;10.40;99.90;;;8.85;100.00;100442.66;4934745;29;20039;-76
2022/12/20 11:51:15;;;;;;;11.20;5.40;;;10.40;99.90;;;8.85;100.00;100446.19;4933139;29;20123;-75
2022/12/20 11:53:53;;;;;;;9.45;4.68;;;10.40;99.90;;;8.86;100.00;100428.00;4892321;29;20086;-74
2022/12/20 11:56:32;;;;;;;9.65;5.40;;;10.40;99.90;;;8.88;100.00;100444.94;4935020;29;20043;-74
2022/12/20 11:59:19;;;;;;;7.60;4.50;;;10.40;99.90;;;8.92;100.00;100436.16;4934619;29;20044;-75
2022/12/20 12:02:04;;;;;;;8.15;4.80;;;10.40;99.90;;;8.98;100.00;100439.91;4934864;29;20406;-75
2022/12/20 12:04:40;;;;;;;8.70;5.22;;;10.50;99.90;;;9.03;100.00;100426.50;4934787;29;20031;-74
2022/12/20 12:07:22;;;;;;;8.48;4.28;;;10.50;99.90;;;9.04;100.00;100428.19;4934912;29;20094;-75
2022/12/20 12:10:18;;;;;;;9.07;4.57;;;10.60;99.90;;;9.09;100.00;100424.00;4934713;29;20072;-75
2022/12/20 12:13:16;;;;;;;6.68;4.60;;;10.60;99.90;;;9.06;100.00;100423.38;4934507;29;20032;-75
2022/12/20 12:16:04;;;;;;;8.57;4.45;;;10.60;99.90;;;9.05;100.00;100410.81;4934788;29;20158;-74
2022/12/20 12:18:33;;;;;;;11.60;4.88;;;10.60;99.90;;;9.02;100.00;100418.56;4934482;29;20446;-75
2022/12/20 12:21:25;;;;;;;8.40;4.18;;;10.60;99.90;;;9.02;100.00;100418.56;4934331;29;20114;-73
2022/12/20 12:24:04;;;;;;;7.93;4.47;;;10.60;99.90;;;8.96;100.00;100414.78;4934755;29;20417;-75
2022/12/20 12:26:34;;;;;;;7.22;4.20;;;10.50;99.90;;;9.01;100.00;100416.88;4934320;29;20031;-77
2022/12/20 12:29:09;;;;;;;8.23;4.53;;;10.50;99.90;;;9.09;100.00;100416.66;4940851;29;20035;-77
2022/12/20 12:31:55;;;;;;;8.20;4.07;;;10.60;99.90;;;9.05;100.00;100389.03;4940212;29;20027;-77
2022/12/20 12:34:24;;;;;;;9.95;4.10;;;10.60;99.90;;;9.12;100.00;100390.91;4953382;29;20039;-76
2022/12/20 12:37:23;;;;;;;8.40;4.13;;;10.60;99.90;;;9.02;100.00;100370.44;4953225;29;20395;-76
2022/12/20 12:40:49;;;;;;;9.73;4.75;;;10.60;99.90;;;9.16;100.00;100387.56;4952591;29;20027;-75
2022/12/20 12:43:39;;;;;;;7.65;4.28;;;10.60;99.90;;;9.37;100.00;100384.75;4914449;29;20040;-76
2022/12/20 12:46:35;;;;;;;7.18;3.83;;;10.80;99.90;;;9.45;99.29;100390.81;4915361;29;20075;-76
2022/12/20 12:49:20;;;;;;;8.02;3.67;;;10.90;99.90;;;9.47;98.57;100368.78;4914971;29;20040;-76
2022/12/20 12:51:54;;;;;;;7.72;3.90;;;11.00;99.90;;;9.62;97.52;100380.25;4916060;29;20032;-76
2022/12/20 12:54:33;;;;;;;8.35;4.00;;;11.10;99.90;;;9.68;96.26;100385.88;4915658;29;20039;-75
2022/12/20 12:57:11;;;;;;;6.68;3.45;;;11.10;99.90;;;9.73;96.12;100380.59;4921548;29;20063;-75
2022/12/20 12:59:37;;;;;;;5.57;3.13;;;11.20;99.90;;;9.69;95.77;100388.38;4927817;29;20047;-75
2022/12/20 13:02:03;;;;;;;6.72;3.45;;;11.20;99.90;;;9.69;96.02;100380.22;4948977;29;20043;-74
2022/12/20 13:04:56;;;;;;;7.10;3.53;;;11.20;99.90;;;9.65;96.75;100362.63;4938571;29;20218;-76
2022/12/20 13:07:31;;;;;;;5.80;3.17;;;11.20;99.90;;;9.57;97.57;100358.28;4947372;29;20123;-77
2022/12/20 13:10:07;;;;;;;7.45;3.58;;;11.10;99.90;;;9.52;98.46;100368.97;4920617;29;20115;-77
2022/12/20 13:12:38;;;;;;;7.00;3.47;;;11.00;99.90;;;9.33;100.00;100359.84;4946819;29;20506;-76
2022/12/20 13:15:19;;;;;;;6.18;3.05;;;10.90;99.90;;;9.20;100.00;100355.28;4950692;29;20031;-76
2022/12/20 13:17:53;;;;;;;6.28;3.22;;;10.80;99.90;;;9.17;100.00;100340.22;4944394;29;20043;-75
2022/12/20 13:20:38;;;;;;;6.30;4.00;;;10.70;99.90;;;9.11;100.00;100338.34;4944747;29;20771;-76
2022/12/20 13:23:12;;;;;;;10.55;4.43;;;10.70;99.90;;;9.13;100.00;100349.03;4945054;29;20074;-75
2022/12/20 13:25:50;;;;;;;7.05;3.42;;;10.60;99.90;;;9.14;100.00;100356.97;4941640;29;20036;-75
2022/12/20 13:28:22;;;;;;;7.05;3.55;;;10.70;99.90;;;9.47;100.00;100366.91;4941769;29;20034;-75
2022/12/20 13:31:08;;;;;;;6.25;3.60;;;10.80;99.90;;;9.81;96.85;100358.53;4937489;29;20095;-76
2022/12/20 13:33:41;;;;;;;5.47;3.13;;;11.30;99.90;;;9.81;95.88;100357.72;4933796;29;20046;-75
2022/12/20 13:36:10;;;;;;;6.57;3.42;;;11.50;99.90;;;9.72;96.67;100357.13;4947156;29;20401;-76
2022/12/20 13:38:41;;;;;;;9.43;3.53;;;11.40;99.90;;;9.42;98.53;100336.78;4952800;29;20492;-77
2022/12/20 13:41:36;;;;;;;8.15;3.60;;;11.20;99.90;;;9.39;100.00;100352.69;4935086;29;20139;-77
2022/12/20 13:44:14;;;;;;;7.82;3.30;;;11.00;99.90;;;9.34;100.00;100353.34;4918826;29;20059;-79
2022/12/20 14:14:57;;;;;;;9.40;3.80;;;10.60;99.90;;;9.10;100.00;100363.06;4909282;29;20051;-80
2022/12/20 14:17:31;;;;;;;11.43;4.78;;;10.60;99.90;;;9.07;100.00;100361.59;4915703;29;20808;-79
2022/12/20 14:20:14;;;;;;;6.47;3.10;;;10.60;99.90;;;9.12;100.00;100367.22;4935012;29;20035;-78
2022/12/20 14:23:00;;;;;;;11.68;4.00;;;10.60;99.90;;;9.10;100.00;100358.44;4915604;29;20040;-78
2022/12/20 14:25:42;;;;;;;7.78;3.50;;;10.60;99.90;;;9.18;100.00;100371.00;4885500;29;20130;-78
2022/12/20 14:28:34;;;;;;;9.13;3.47;;;10.60;99.90;;;9.24;99.89;100366.59;4931524;29;20031;-79
2022/12/20 14:31:02;;;;;;;10.85;4.10;;;10.70;99.90;;;9.23;99.81;100349.41;4932310;29;20206;-79
2022/12/20 14:33:40;;;;;;;11.85;5.38;;;10.70;99.90;;;9.19;100.00;100351.72;4901480;29;20036;-79
2022/12/20 14:36:24;;;;;;;12.13;4.45;;;10.70;99.90;;;9.20;99.76;100344.38;4901170;29;20565;-78
2022/12/20 14:38:52;;;;;;;7.38;3.33;;;10.70;99.90;;;9.16;100.00;100348.59;4911695;29;20056;-80
2022/12/20 14:41:39;;;;;;;7.80;3.83;;;10.70;99.90;;;9.09;100.00;100343.16;4934181;29;20126;-80
2022/12/20 14:44:22;;;;;;;6.70;3.80;;;10.60;99.90;;;9.09;100.00;100354.06;4913784;29;20067;-79
2022/12/20 14:46:52;;;;;;;6.00;3.40;;;10.60;99.90;;;9.07;100.00;100356.16;4934072;29;20043;-79
2022/12/20 14:49:25;;;;;;;5.97;3.25;;;10.60;99.90;;;9.06;100.00;100339.00;4933690;29;20043;-80
2022/12/20 14:52:18;;;;;;;6.70;3.38;;;10.60;99.90;;;9.13;100.00;100338.97;4933481;29;20462;-79
2022/12/20 14:54:53;;;;;;;6.75;3.38;;;10.60;99.90;;;9.12;100.00;100350.91;4930280;29;20054;-79
2022/12/20 14:57:33;;;;;;;7.03;3.20;;;10.60;99.90;;;9.14;100.00;100345.25;4931300;29;20040;-79
2022/12/20 15:00:33;;;;;;;7.38;3.80;;;10.60;99.90;;;9.20;100.00;100338.94;4930777;29;20052;-79
2022/12/20 15:03:16;;;;;;;6.60;3.85;;;10.70;99.90;;;9.17;100.00;100331.22;4901593;29;20059;-79
2022/12/20 15:05:46;;;;;;;7.40;3.60;;;10.70;99.90;;;9.16;100.00;100316.78;4932257;29;20100;-79
2022/12/20 15:08:29;;;;;;;8.00;3.60;;;10.70;99.90;;;9.14;100.00;100316.13;4931970;29;20048;-79
2022/12/20 15:11:09;;;;;;;7.10;3.78;;;10.60;99.90;;;9.09;100.00;100312.41;4933306;29;20036;-79
2022/12/20 15:13:41;;;;;;;8.57;3.78;;;10.60;99.90;;;9.07;100.00;100318.91;4915250;29;20074;-79
2022/12/20 15:16:26;;;;;;;6.88;3.90;;;10.60;99.90;;;9.00;100.00;100312.63;4933437;29;20475;-80
2022/12/20 15:18:56;;;;;;;7.97;4.00;;;10.60;99.90;;;9.06;100.00;100314.50;4909313;29;20036;-78
2022/12/20 15:21:29;;;;;;;10.73;4.07;;;10.60;99.90;;;9.01;100.00;100314.31;4914230;29;20603;-80
2022/12/20 15:23:58;;;;;;;5.63;3.70;;;10.50;99.90;;;8.98;100.00;100309.28;4927020;29;20044;-78
2022/12/20 15:26:26;;;;;;;14.55;5.07;;;10.50;99.90;;;8.97;100.00;100313.06;4930766;29;20040;-78
2022/12/20 15:28:52;;;;;;;8.63;4.32;;;10.50;99.90;;;8.88;100.00;100314.34;4932910;29;20186;-76
2022/12/20 15:31:23;;;;;;;6.38;3.58;;;10.40;99.90;;;8.84;100.00;100283.19;4929737;29;20063;-79
2022/12/20 15:33:50;;;;;;;6.38;3.53;;;10.40;99.90;;;8.85;100.00;100298.47;4932777;29;20118;-77
2022/12/20 15:36:25;;;;;;;8.52;4.07;;;10.40;99.90;;;8.84;100.00;100294.06;4932552;29;20043;-78
2022/12/20 15:38:55;;;;;;;7.80;3.70;;;10.40;99.90;;;8.85;100.00;100295.75;4908757;29;20044;-77
2022/12/20 15:41:26;;;;;;;10.35;4.10;;;10.40;99.90;;;8.85;100.00;100282.16;4914325;29;20415;-76
2022/12/20 15:43:56;;;;;;;5.43;3.10;;;10.40;99.90;;;8.87;100.00;100283.59;4914903;29;20055;-76
2022/12/20 15:46:22;;;;;;;9.85;4.32;;;10.40;99.90;;;8.84;100.00;100281.28;4914303;29;20158;-76
2022/12/20 15:48:48;;;;;;;9.40;4.22;;;10.40;99.90;;;8.82;100.00;100275.25;4932240;29;20036;-77
2022/12/20 15:51:29;;;;;;;11.90;4.00;;;10.30;99.90;;;8.84;100.00;100280.47;4914183;29;20047;-77
2022/12/20 15:53:55;;;;;;;8.27;4.05;;;10.40;99.90;;;8.89;100.00;100299.69;4934649;29;20047;-77
2022/12/20 15:56:23;;;;;;;7.05;3.83;;;10.40;99.90;;;8.87;100.00;100293.66;4932390;29;20035;-78
2022/12/20 15:58:51;;;;;;;5.93;3.33;;;10.40;99.90;;;8.85;100.00;100298.47;4913972;29;20063;-77
2022/12/20 16:01:24;;;;;;;6.03;3.60;;;10.40;99.90;;;8.84;100.00;100286.72;4933369;29;20043;-79
2022/12/20 16:03:50;;;;;;;6.53;3.55;;;10.40;99.90;;;8.81;100.00;100284.44;4933641;29;20091;-79
2022/12/20 16:06:16;;;;;;;5.20;3.53;;;10.30;99.90;;;8.80;100.00;100287.41;4931653;29;20690;-78
2022/12/20 16:08:42;;;;;;;6.28;3.55;;;10.30;99.90;;;8.76;100.00;100296.00;4929625;29;20054;-78
2022/12/20 16:11:26;;;;;;;6.10;3.85;;;10.30;99.90;;;8.83;100.00;100300.56;4932937;29;20039;-79
2022/12/20 16:13:53;;;;;;;7.93;3.97;;;10.30;99.90;;;8.70;100.00;100296.81;4932487;29;20052;-77
2022/12/20 16:16:27;;;;;;;6.53;3.30;;;10.20;99.90;;;8.60;100.00;100310.84;4930920;29;20031;-78
2022/12/20 16:18:52;;;;;;;6.47;3.50;;;10.10;99.90;;;8.53;100.00;100309.22;4898946;29;20047;-77
2022/12/20 16:21:25;;;;;;;6.40;3.45;;;10.10;99.90;;;8.59;100.00;100316.53;4933923;29;20043;-79
2022/12/20 16:23:52;;;;;;;7.18;3.47;;;10.10;99.90;;;8.66;100.00;100325.50;4936197;29;20054;-75
2022/12/20 16:26:22;;;;;;;7.10;3.43;;;10.10;99.90;;;8.71;100.00;100320.25;4935675;29;20398;-76
2022/12/20 16:28:50;;;;;;;7.28;3.40;;;10.20;99.90;;;8.67;100.00;100321.72;4935807;29;20063;-77
2022/12/20 16:31:37;;;;;;;7.05;3.40;;;10.20;99.90;;;8.62;100.00;100322.38;4935689;29;20035;-77
2022/12/20 16:34:10;;;;;;;6.32;3.58;;;10.10;99.90;;;8.62;100.00;100326.97;4937895;29;20047;-77
2022/12/20 16:36:37;;;;;;;5.80;3.50;;;10.10;99.90;;;8.61;100.00;100333.47;4939324;29;20079;-79
2022/12/20 16:39:03;;;;;;;8.55;3.58;;;10.10;99.90;;;8.65;100.00;100344.75;4944282;29;20069;-78
2022/12/20 16:41:32;;;;;;;7.70;3.88;;;10.10;99.90;;;8.66;100.00;100339.09;4927268;29;20090;-77
2022/12/20 16:44:01;;;;;;;5.80;3.33;;;10.20;99.90;;;8.68;100.00;100337.00;4919168;29;20126;-79
2022/12/20 16:46:29;;;;;;;6.82;3.63;;;10.20;99.90;;;8.72;100.00;100338.25;4921144;29;20043;-78
2022/12/20 16:48:58;;;;;;;6.43;3.60;;;10.20;99.90;;;8.76;100.00;100327.78;4917357;29;20058;-78
2022/12/20 16:51:30;;;;;;;6.85;3.60;;;10.20;99.90;;;8.84;100.00;100332.16;4935608;29;20123;-79
2022/12/20 16:54:00;;;;;;;6.88;3.35;;;10.30;99.90;;;8.78;100.00;100323.81;4928720;29;20036;-78
2022/12/20 16:56:27;;;;;;;12.20;4.88;;;10.30;99.90;;;8.83;100.00;100316.88;4916352;29;20054;-81
2022/12/20 16:58:53;;;;;;;13.38;5.00;;;10.30;99.90;;;8.72;100.00;100319.19;4930986;29;20068;-80
2022/12/20 17:01:22;;;;;;;7.82;3.33;;;10.30;99.90;;;8.71;100.00;100314.81;4913581;29;20039;-79
2022/12/20 17:03:50;;;;;;;8.57;3.70;;;10.30;99.90;;;8.69;100.00;100325.06;4934051;29;20058;-79
2022/12/20 17:06:17;;;;;;;7.97;4.28;;;10.20;99.90;;;8.60;100.00;100329.06;4931275;29;20430;-78
2022/12/20 17:08:44;;;;;;;7.03;3.60;;;10.10;99.90;;;8.57;100.00;100338.47;4932076;29;20090;-78
2022/12/20 17:11:30;;;;;;;7.30;3.50;;;10.10;99.90;;;8.49;100.00;100317.78;4914912;29;20475;-78
2022/12/20 17:13:57;;;;;;;7.88;3.80;;;10.00;99.90;;;8.47;100.00;100325.28;4932600;29;20444;-78
2022/12/20 17:16:23;;;;;;;10.18;6.13;;;10.00;99.90;;;8.46;100.00;100312.72;4932024;29;20032;-78
2022/12/20 17:18:53;;;;;;;10.38;4.20;;;9.90;99.90;;;8.43;100.00;100312.34;4928244;29;20044;-79
2022/12/20 17:21:41;;;;;;;13.82;5.53;;;9.90;99.90;;;8.34;100.00;100312.53;4914710;29;20384;-79
2022/12/20 17:24:19;;;;;;;6.22;3.95;;;9.90;99.90;;;8.35;100.00;100310.66;4940804;29;20035;-79
2022/12/20 17:26:47;;;;;;;6.82;4.07;;;9.80;99.90;;;8.33;100.00;100308.13;4938194;29;20488;-82
2022/12/20 17:29:13;;;;;;;8.05;4.72;;;9.80;99.90;;;8.38;100.00;100307.50;4936683;29;20455;-79
2022/12/20 17:31:43;;;;;;;11.85;4.97;;;9.90;99.90;;;8.33;100.00;100291.81;4938797;28;20103;-80
2022/12/20 17:34:17;;;;;;;12.90;5.03;;;9.90;99.90;;;8.33;100.00;100291.00;4938195;29;20066;-80
2022/12/20 17:36:44;;;;;;;9.15;4.65;;;9.90;99.90;;;8.30;100.00;100286.00;4941380;29;20039;-80
2022/12/20 17:39:10;;;;;;;8.48;4.40;;;9.80;99.90;;;8.29;100.00;100304.16;4939422;29;20042;-78
2022/12/20 17:41:36;;;;;;;7.57;4.53;;;9.80;99.90;;;8.32;100.00;100297.50;4938634;29;20421;-78
2022/12/20 17:44:03;;;;;;;9.27;4.43;;;9.80;99.90;;;8.22;100.00;100289.75;4920776;29;20487;-81
2022/12/20 17:46:30;;;;;;;7.80;4.82;;;9.80;99.90;;;8.15;100.00;100287.03;4942011;29;20071;-83
2022/12/20 17:48:58;;;;;;;9.27;5.25;;;9.70;99.90;;;8.14;100.00;100281.84;4941874;29;20040;-83
2022/12/20 17:51:29;;;;;;;8.20;5.15;;;9.70;99.90;;;8.04;100.00;100291.22;4917464;29;20491;-82
2022/12/20 17:53:57;;;;;;;9.32;5.53;;;9.60;99.90;;;7.92;100.00;100291.00;4917355;29;20085;-83